sensor_id;sensor_type;location;lat;lon;timestamp;temperature;humidity
6552;DHT22;3309;48.708;9.290;2023-12-20T00:02:17;6.00;1.00
6552;DHT22;3309;48.708;9.290;2023-12-20T00:04:42;6.00;1.00
6552;DHT22;3309;48.708;9.290;2023-12-20T00:07:08;6.00;1.00
6552;DHT22;3309;48.708;9.290;2023-12-20T00:09:35;6.00;1.00
6552;DHT22;3309;48.708;9.290;2023-12-20T00:12:00;6.00;1.00
6552;DHT22;3309;48.708;9.290;2023-12-20T00:14:26;6.10;1.00
6552;DHT22;3309;48.708;9.290;2023-12-20T00:16:51;6.00;1.00
6552;DHT22;3309;48.708;9.290;2023-12-20T00:19:17;6.10;1.00
6552;DHT22;3309;48.708;9.290;2023-12-20T00:21:48;6.10;1.00
6552;DHT22;3309;48.708;9.290;2023-12-20T00:24:14;6.10;1.00
6552;DHT22;3309;48.708;9.290;2023-12-20T00:26:39;6.10;1.00
6552;DHT22;3309;48.708;9.290;2023-12-20T00:29:05;6.10;1.00
6552;DHT22;3309;48.708;9.290;2023-12-20T00:31:30;6.10;1.00
6552;DHT22;3309;48.708;9.290;2023-12-20T00:33:56;6.10;1.00
6552;DHT22;3309;48.708;9.290;2023-12-20T00:36:21;6.20;1.00
6552;DHT22;3309;48.708;9.290;2023-12-20T00:38:47;6.20;1.00
6552;DHT22;3309;48.708;9.290;2023-12-20T00:41:13;6.10;1.00
6552;DHT22;3309;48.708;9.290;2023-12-20T00:43:39;6.10;1.00
6552;DHT22;3309;48.708;9.290;2023-12-20T00:46:04;6.10;1.00
6552;DHT22;3309;48.708;9.290;2023-12-20T00:48:30;6.10;1.00
6552;DHT22;3309;48.708;9.290;2023-12-20T00:50:57;6.00;1.00
6552;DHT22;3309;48.708;9.290;2023-12-20T00:53:22;6.00;1.00
6552;DHT22;3309;48.708;9.290;2023-12-20T00:55:48;5.90;1.00
6552;DHT22;3309;48.708;9.290;2023-12-20T00:58:15;5.90;1.00
6552;DHT22;3309;48.708;9.290;2023-12-20T01:00:40;5.90;1.00
6552;DHT22;3309;48.708;9.290;2023-12-20T01:03:08;5.80;1.00
6552;DHT22;3309;48.708;9.290;2023-12-20T01:05:33;5.80;4.40
6552;DHT22;3309;48.708;9.290;2023-12-20T01:07:59;5.80;21.20
6552;DHT22;3309;48.708;9.290;2023-12-20T01:10:25;5.70;47.10
6552;DHT22;3309;48.708;9.290;2023-12-20T01:12:53;5.70;87.00
6552;DHT22;3309;48.708;9.290;2023-12-20T01:15:19;5.80;90.00
6552;DHT22;3309;48.708;9.290;2023-12-20T01:17:44;5.80;99.90
6552;DHT22;3309;48.708;9.290;2023-12-20T01:20:10;5.80;99.90
6552;DHT22;3309;48.708;9.290;2023-12-20T01:22:36;5.80;99.90
6552;DHT22;3309;48.708;9.290;2023-12-20T01:25:01;5.80;99.90
6552;DHT22;3309;48.708;9.290;2023-12-20T01:27:28;5.80;99.90
6552;DHT22;3309;48.708;9.290;2023-12-20T01:29:53;5.80;99.90
6552;DHT22;3309;48.708;9.290;2023-12-20T01:32:19;5.70;99.90
6552;DHT22;3309;48.708;9.290;2023-12-20T01:34:45;5.70;99.90
6552;DHT22;3309;48.708;9.290;2023-12-20T01:37:10;5.70;99.90
6552;DHT22;3309;48.708;9.290;2023-12-20T01:39:36;5.70;99.90
6552;DHT22;3309;48.708;9.290;2023-12-20T01:42:01;5.70;99.90
6552;DHT22;3309;48.708;9.290;2023-12-20T01:44:27;5.60;99.90
6552;DHT22;3309;48.708;9.290;2023-12-20T01:46:53;5.60;99.90
6552;DHT22;3309;48.708;9.290;2023-12-20T01:49:19;5.60;99.90
6552;DHT22;3309;48.708;9.290;2023-12-20T01:51:46;5.60;99.90
6552;DHT22;3309;48.708;9.290;2023-12-20T01:54:12;5.60;99.90
6552;DHT22;3309;48.708;9.290;2023-12-20T01:56:38;5.60;99.90
6552;DHT22;3309;48.708;9.290;2023-12-20T01:59:04;5.60;99.90
6552;DHT22;3309;48.708;9.290;2023-12-20T02:01:31;5.60;99.90
6552;DHT22;3309;48.708;9.290;2023-12-20T02:03:57;5.60;99.90
6552;DHT22;3309;48.708;9.290;2023-12-20T02:06:23;5.50;99.90
6552;DHT22;3309;48.708;9.290;2023-12-20T02:08:50;5.50;99.90
6552;DHT22;3309;48.708;9.290;2023-12-20T02:11:16;5.60;99.90
6552;DHT22;3309;48.708;9.290;2023-12-20T02:13:41;5.60;99.90
6552;DHT22;3309;48.708;9.290;2023-12-20T02:16:07;5.60;99.90
6552;DHT22;3309;48.708;9.290;2023-12-20T02:18:33;5.50;99.90
6552;DHT22;3309;48.708;9.290;2023-12-20T02:20:59;5.60;99.90
6552;DHT22;3309;48.708;9.290;2023-12-20T02:23:24;5.60;99.90
6552;DHT22;3309;48.708;9.290;2023-12-20T02:25:50;5.50;99.90
6552;DHT22;3309;48.708;9.290;2023-12-20T02:28:16;5.50;99.90
6552;DHT22;3309;48.708;9.290;2023-12-20T02:30:42;5.50;99.90
6552;DHT22;3309;48.708;9.290;2023-12-20T02:33:08;5.50;99.90
6552;DHT22;3309;48.708;9.290;2023-12-20T02:35:37;5.50;99.90
6552;DHT22;3309;48.708;9.290;2023-12-20T02:38:02;5.50;99.90
6552;DHT22;3309;48.708;9.290;2023-12-20T02:40:28;5.50;99.90
6552;DHT22;3309;48.708;9.290;2023-12-20T02:42:54;5.00;99.90
6552;DHT22;3309;48.708;9.290;2023-12-20T02:45:19;5.50;99.90
6552;DHT22;3309;48.708;9.290;2023-12-20T02:47:45;5.50;99.90
6552;DHT22;3309;48.708;9.290;2023-12-20T02:50:10;5.50;99.90
6552;DHT22;3309;48.708;9.290;2023-12-20T02:52:36;5.40;99.90
6552;DHT22;3309;48.708;9.290;2023-12-20T02:55:01;5.40;99.90
6552;DHT22;3309;48.708;9.290;2023-12-20T02:57:27;5.40;99.90
6552;DHT22;3309;48.708;9.290;2023-12-20T02:59:52;5.40;99.90
6552;DHT22;3309;48.708;9.290;2023-12-20T03:02:18;5.40;99.90
6552;DHT22;3309;48.708;9.290;2023-12-20T03:04:43;5.40;99.90
6552;DHT22;3309;48.708;9.290;2023-12-20T03:07:09;5.50;99.90
6552;DHT22;3309;48.708;9.290;2023-12-20T03:09:35;5.50;99.90
6552;DHT22;3309;48.708;9.290;2023-12-20T03:12:01;5.40;99.90
6552;DHT22;3309;48.708;9.290;2023-12-20T03:14:26;5.40;99.90
6552;DHT22;3309;48.708;9.290;2023-12-20T03:16:52;5.40;99.90
6552;DHT22;3309;48.708;9.290;2023-12-20T03:19:18;5.40;99.90
6552;DHT22;3309;48.708;9.290;2023-12-20T03:21:44;5.40;99.90
6552;DHT22;3309;48.708;9.290;2023-12-20T03:24:10;5.40;99.90
6552;DHT22;3309;48.708;9.290;2023-12-20T03:26:35;5.40;99.90
6552;DHT22;3309;48.708;9.290;2023-12-20T03:29:01;5.40;99.90
6552;DHT22;3309;48.708;9.290;2023-12-20T03:31:26;5.40;99.90
6552;DHT22;3309;48.708;9.290;2023-12-20T03:33:52;5.40;99.90
6552;DHT22;3309;48.708;9.290;2023-12-20T03:36:19;5.40;99.90
6552;DHT22;3309;48.708;9.290;2023-12-20T03:38:45;5.30;99.90
6552;DHT22;3309;48.708;9.290;2023-12-20T03:41:11;5.30;99.90
6552;DHT22;3309;48.708;9.290;2023-12-20T03:43:36;5.20;99.90
6552;DHT22;3309;48.708;9.290;2023-12-20T03:46:03;5.20;99.90
6552;DHT22;3309;48.708;9.290;2023-12-20T03:48:30;5.20;99.90
6552;DHT22;3309;48.708;9.290;2023-12-20T03:50:57;5.20;99.90
6552;DHT22;3309;48.708;9.290;2023-12-20T03:53:22;5.20;99.90
6552;DHT22;3309;48.708;9.290;2023-12-20T03:55:48;5.20;99.90
6552;DHT22;3309;48.708;9.290;2023-12-20T03:58:13;5.20;99.90
6552;DHT22;3309;48.708;9.290;2023-12-20T04:00:39;5.30;99.90
6552;DHT22;3309;48.708;9.290;2023-12-20T04:03:04;5.30;99.90
6552;DHT22;3309;48.708;9.290;2023-12-20T04:05:30;5.30;99.90
6552;DHT22;3309;48.708;9.290;2023-12-20T04:07:56;5.30;99.90
6552;DHT22;3309;48.708;9.290;2023-12-20T04:10:22;5.30;99.90
6552;DHT22;3309;48.708;9.290;2023-12-20T04:12:47;5.30;99.90
6552;DHT22;3309;48.708;9.290;2023-12-20T04:15:13;5.20;99.90
6552;DHT22;3309;48.708;9.290;2023-12-20T04:17:38;5.20;99.90
6552;DHT22;3309;48.708;9.290;2023-12-20T04:20:05;5.20;99.90
6552;DHT22;3309;48.708;9.290;2023-12-20T04:22:30;5.20;99.90
6552;DHT22;3309;48.708;9.290;2023-12-20T04:24:56;5.20;99.90
6552;DHT22;3309;48.708;9.290;2023-12-20T04:27:21;5.20;99.90
6552;DHT22;3309;48.708;9.290;2023-12-20T04:29:47;5.20;99.90
6552;DHT22;3309;48.708;9.290;2023-12-20T04:32:12;5.20;99.90
6552;DHT22;3309;48.708;9.290;2023-12-20T04:34:38;5.20;99.90
6552;DHT22;3309;48.708;9.290;2023-12-20T04:37:04;5.20;99.90
6552;DHT22;3309;48.708;9.290;2023-12-20T04:39:29;5.20;99.90
6552;DHT22;3309;48.708;9.290;2023-12-20T04:41:55;5.20;99.90
6552;DHT22;3309;48.708;9.290;2023-12-20T04:44:20;5.20;99.90
6552;DHT22;3309;48.708;9.290;2023-12-20T04:46:46;5.20;99.90
6552;DHT22;3309;48.708;9.290;2023-12-20T04:49:11;5.10;99.90
6552;DHT22;3309;48.708;9.290;2023-12-20T04:51:37;5.20;99.90
6552;DHT22;3309;48.708;9.290;2023-12-20T04:54:03;5.20;99.90
6552;DHT22;3309;48.708;9.290;2023-12-20T04:56:29;5.30;99.90
6552;DHT22;3309;48.708;9.290;2023-12-20T04:58:54;5.20;99.90
6552;DHT22;3309;48.708;9.290;2023-12-20T05:01:20;5.20;99.90
6552;DHT22;3309;48.708;9.290;2023-12-20T05:03:46;5.20;99.90
6552;DHT22;3309;48.708;9.290;2023-12-20T05:06:12;5.10;99.90
6552;DHT22;3309;48.708;9.290;2023-12-20T05:08:38;5.10;99.90
6552;DHT22;3309;48.708;9.290;2023-12-20T05:11:04;5.10;99.90
6552;DHT22;3309;48.708;9.290;2023-12-20T05:13:30;5.10;99.90
6552;DHT22;3309;48.708;9.290;2023-12-20T05:15:55;5.10;99.90
6552;DHT22;3309;48.708;9.290;2023-12-20T05:18:21;5.10;99.90
6552;DHT22;3309;48.708;9.290;2023-12-20T05:20:48;5.10;99.90
6552;DHT22;3309;48.708;9.290;2023-12-20T05:23:14;5.10;99.90
6552;DHT22;3309;48.708;9.290;2023-12-20T05:25:40;5.10;99.90
6552;DHT22;3309;48.708;9.290;2023-12-20T05:28:05;5.10;99.90
6552;DHT22;3309;48.708;9.290;2023-12-20T05:30:31;5.10;99.90
6552;DHT22;3309;48.708;9.290;2023-12-20T05:32:57;5.10;99.90
6552;DHT22;3309;48.708;9.290;2023-12-20T05:35:22;5.10;99.90
6552;DHT22;3309;48.708;9.290;2023-12-20T05:37:49;5.10;99.90
6552;DHT22;3309;48.708;9.290;2023-12-20T05:40:14;5.10;99.90
6552;DHT22;3309;48.708;9.290;2023-12-20T05:42:40;5.20;99.90
6552;DHT22;3309;48.708;9.290;2023-12-20T05:45:06;5.20;99.90
6552;DHT22;3309;48.708;9.290;2023-12-20T05:47:31;5.00;99.90
6552;DHT22;3309;48.708;9.290;2023-12-20T05:49:57;5.10;99.90
6552;DHT22;3309;48.708;9.290;2023-12-20T05:52:23;5.10;99.90
6552;DHT22;3309;48.708;9.290;2023-12-20T05:54:48;5.10;99.90
6552;DHT22;3309;48.708;9.290;2023-12-20T05:57:14;5.10;99.90
6552;DHT22;3309;48.708;9.290;2023-12-20T05:59:40;5.00;99.90
6552;DHT22;3309;48.708;9.290;2023-12-20T06:02:05;5.00;99.90
6552;DHT22;3309;48.708;9.290;2023-12-20T06:04:31;5.00;99.90
6552;DHT22;3309;48.708;9.290;2023-12-20T06:06:56;5.00;99.90
6552;DHT22;3309;48.708;9.290;2023-12-20T06:09:22;5.00;99.90
6552;DHT22;3309;48.708;9.290;2023-12-20T06:11:47;5.00;99.90
6552;DHT22;3309;48.708;9.290;2023-12-20T06:14:13;5.00;99.90
6552;DHT22;3309;48.708;9.290;2023-12-20T06:16:38;5.00;99.90
6552;DHT22;3309;48.708;9.290;2023-12-20T06:19:04;4.90;99.90
6552;DHT22;3309;48.708;9.290;2023-12-20T06:21:30;4.90;99.90
6552;DHT22;3309;48.708;9.290;2023-12-20T06:23:55;4.90;99.90
6552;DHT22;3309;48.708;9.290;2023-12-20T06:26:21;4.90;99.90
6552;DHT22;3309;48.708;9.290;2023-12-20T06:28:46;4.90;99.90
6552;DHT22;3309;48.708;9.290;2023-12-20T06:31:12;4.90;99.90
6552;DHT22;3309;48.708;9.290;2023-12-20T06:33:38;4.90;99.90
6552;DHT22;3309;48.708;9.290;2023-12-20T06:36:06;5.00;99.90
6552;DHT22;3309;48.708;9.290;2023-12-20T06:38:31;5.20;99.90
6552;DHT22;3309;48.708;9.290;2023-12-20T06:40:57;5.20;99.90
6552;DHT22;3309;48.708;9.290;2023-12-20T06:43:24;5.20;99.90
6552;DHT22;3309;48.708;9.290;2023-12-20T06:45:49;5.10;99.90
6552;DHT22;3309;48.708;9.290;2023-12-20T06:48:16;5.10;99.90
6552;DHT22;3309;48.708;9.290;2023-12-20T06:50:41;5.00;99.90
6552;DHT22;3309;48.708;9.290;2023-12-20T06:53:07;5.00;99.90
6552;DHT22;3309;48.708;9.290;2023-12-20T06:55:35;5.00;99.90
6552;DHT22;3309;48.708;9.290;2023-12-20T06:58:01;5.00;99.90
6552;DHT22;3309;48.708;9.290;2023-12-20T07:00:27;5.00;99.90
6552;DHT22;3309;48.708;9.290;2023-12-20T07:02:53;5.00;99.90
6552;DHT22;3309;48.708;9.290;2023-12-20T07:05:18;4.90;99.90
6552;DHT22;3309;48.708;9.290;2023-12-20T07:07:45;4.90;99.90
6552;DHT22;3309;48.708;9.290;2023-12-20T07:10:13;4.90;99.90
6552;DHT22;3309;48.708;9.290;2023-12-20T07:12:39;4.90;99.90
6552;DHT22;3309;48.708;9.290;2023-12-20T07:15:05;4.90;99.90
6552;DHT22;3309;48.708;9.290;2023-12-20T07:17:33;5.00;99.90
6552;DHT22;3309;48.708;9.290;2023-12-20T07:19:59;5.00;99.90
6552;DHT22;3309;48.708;9.290;2023-12-20T07:22:31;5.10;99.90
6552;DHT22;3309;48.708;9.290;2023-12-20T07:24:58;5.10;99.90
6552;DHT22;3309;48.708;9.290;2023-12-20T07:27:23;5.10;99.90
6552;DHT22;3309;48.708;9.290;2023-12-20T07:29:49;5.10;99.90
6552;DHT22;3309;48.708;9.290;2023-12-20T07:32:14;5.00;99.90
6552;DHT22;3309;48.708;9.290;2023-12-20T07:34:40;5.10;99.90
6552;DHT22;3309;48.708;9.290;2023-12-20T07:37:06;5.10;99.90
6552;DHT22;3309;48.708;9.290;2023-12-20T07:39:31;5.10;99.90
6552;DHT22;3309;48.708;9.290;2023-12-20T07:41:57;5.10;99.90
6552;DHT22;3309;48.708;9.290;2023-12-20T07:44:22;5.00;99.90
6552;DHT22;3309;48.708;9.290;2023-12-20T07:46:48;5.00;99.90
6552;DHT22;3309;48.708;9.290;2023-12-20T07:49:14;5.10;99.90
6552;DHT22;3309;48.708;9.290;2023-12-20T07:51:42;5.10;99.90
6552;DHT22;3309;48.708;9.290;2023-12-20T07:54:07;5.10;99.90
6552;DHT22;3309;48.708;9.290;2023-12-20T07:56:33;5.20;99.90
6552;DHT22;3309;48.708;9.290;2023-12-20T07:59:03;5.20;99.90
6552;DHT22;3309;48.708;9.290;2023-12-20T08:01:29;5.20;99.90
6552;DHT22;3309;48.708;9.290;2023-12-20T08:03:54;5.30;99.90
6552;DHT22;3309;48.708;9.290;2023-12-20T08:06:21;5.20;99.90
6552;DHT22;3309;48.708;9.290;2023-12-20T08:08:46;5.80;99.90
6552;DHT22;3309;48.708;9.290;2023-12-20T08:11:12;5.20;99.90
6552;DHT22;3309;48.708;9.290;2023-12-20T08:13:38;5.20;99.90
6552;DHT22;3309;48.708;9.290;2023-12-20T08:16:03;5.20;99.90
6552;DHT22;3309;48.708;9.290;2023-12-20T08:18:29;5.10;99.90
6552;DHT22;3309;48.708;9.290;2023-12-20T08:20:55;5.20;99.90
6552;DHT22;3309;48.708;9.290;2023-12-20T08:23:21;5.30;99.90
6552;DHT22;3309;48.708;9.290;2023-12-20T08:25:46;5.30;99.90
6552;DHT22;3309;48.708;9.290;2023-12-20T08:28:13;5.30;99.90
6552;DHT22;3309;48.708;9.290;2023-12-20T08:30:39;5.30;99.90
6552;DHT22;3309;48.708;9.290;2023-12-20T08:33:05;5.30;99.90
6552;DHT22;3309;48.708;9.290;2023-12-20T08:35:33;5.30;99.90
6552;DHT22;3309;48.708;9.290;2023-12-20T08:37:58;5.30;99.90
6552;DHT22;3309;48.708;9.290;2023-12-20T08:40:24;5.30;99.90
6552;DHT22;3309;48.708;9.290;2023-12-20T08:42:49;5.30;99.90
6552;DHT22;3309;48.708;9.290;2023-12-20T08:45:15;5.30;99.90
6552;DHT22;3309;48.708;9.290;2023-12-20T08:47:41;5.30;99.90
6552;DHT22;3309;48.708;9.290;2023-12-20T08:50:07;5.30;99.90
6552;DHT22;3309;48.708;9.290;2023-12-20T08:52:32;5.20;99.90
6552;DHT22;3309;48.708;9.290;2023-12-20T08:54:58;5.20;99.90
6552;DHT22;3309;48.708;9.290;2023-12-20T08:57:24;5.30;99.90
6552;DHT22;3309;48.708;9.290;2023-12-20T08:59:50;5.30;99.90
6552;DHT22;3309;48.708;9.290;2023-12-20T09:02:16;5.20;99.90
6552;DHT22;3309;48.708;9.290;2023-12-20T09:04:42;5.30;99.90
6552;DHT22;3309;48.708;9.290;2023-12-20T09:07:21;5.30;99.90
6552;DHT22;3309;48.708;9.290;2023-12-20T09:09:47;5.30;99.90
6552;DHT22;3309;48.708;9.290;2023-12-20T09:12:13;5.20;99.90
6552;DHT22;3309;48.708;9.290;2023-12-20T09:14:38;5.20;99.90
6552;DHT22;3309;48.708;9.290;2023-12-20T09:17:04;5.20;99.90
6552;DHT22;3309;48.708;9.290;2023-12-20T09:19:33;5.30;99.90
6552;DHT22;3309;48.708;9.290;2023-12-20T09:21:59;5.40;99.90
6552;DHT22;3309;48.708;9.290;2023-12-20T09:24:24;5.40;99.90
6552;DHT22;3309;48.708;9.290;2023-12-20T09:26:50;5.30;99.90
6552;DHT22;3309;48.708;9.290;2023-12-20T09:29:15;5.40;99.90
6552;DHT22;3309;48.708;9.290;2023-12-20T09:31:41;5.60;60.00
6552;DHT22;3309;48.708;9.290;2023-12-20T09:34:09;5.80;35.90
6552;DHT22;3309;48.708;9.290;2023-12-20T09:36:34;6.00;1.00
6552;DHT22;3309;48.708;9.290;2023-12-20T09:39:02;6.90;1.00
6552;DHT22;3309;48.708;9.290;2023-12-20T09:41:31;6.60;1.00
6552;DHT22;3309;48.708;9.290;2023-12-20T09:44:02;8.20;1.00
6552;DHT22;3309;48.708;9.290;2023-12-20T09:46:29;8.20;99.90
6552;DHT22;3309;48.708;9.290;2023-12-20T09:48:59;9.70;1.00
6552;DHT22;3309;48.708;9.290;2023-12-20T09:51:29;9.60;1.00
6552;DHT22;3309;48.708;9.290;2023-12-20T09:53:54;8.90;1.00
6552;DHT22;3309;48.708;9.290;2023-12-20T09:56:22;9.00;1.00
6552;DHT22;3309;48.708;9.290;2023-12-20T09:58:48;10.70;1.00
6552;DHT22;3309;48.708;9.290;2023-12-20T10:01:15;12.20;99.90
6552;DHT22;3309;48.708;9.290;2023-12-20T10:03:41;12.80;1.00
6552;DHT22;3309;48.708;9.290;2023-12-20T10:06:07;13.50;1.00
6552;DHT22;3309;48.708;9.290;2023-12-20T10:08:35;13.20;1.00
6552;DHT22;3309;48.708;9.290;2023-12-20T10:11:01;14.00;1.00
6552;DHT22;3309;48.708;9.290;2023-12-20T10:13:28;14.30;1.00
6552;DHT22;3309;48.708;9.290;2023-12-20T10:15:55;14.30;1.00
6552;DHT22;3309;48.708;9.290;2023-12-20T10:18:21;14.30;1.00
6552;DHT22;3309;48.708;9.290;2023-12-20T10:20:47;15.40;1.00
6552;DHT22;3309;48.708;9.290;2023-12-20T10:23:15;15.10;1.00
6552;DHT22;3309;48.708;9.290;2023-12-20T10:25:41;14.20;1.00
6552;DHT22;3309;48.708;9.290;2023-12-20T10:28:16;14.10;1.00
6552;DHT22;3309;48.708;9.290;2023-12-20T10:30:44;15.00;1.00
6552;DHT22;3309;48.708;9.290;2023-12-20T10:33:10;14.40;1.00
6552;DHT22;3309;48.708;9.290;2023-12-20T10:35:37;13.80;1.00
6552;DHT22;3309;48.708;9.290;2023-12-20T10:38:05;14.20;1.00
6552;DHT22;3309;48.708;9.290;2023-12-20T10:40:31;13.90;1.00
6552;DHT22;3309;48.708;9.290;2023-12-20T10:43:01;13.50;1.00
6552;DHT22;3309;48.708;9.290;2023-12-20T10:45:27;13.40;1.00
6552;DHT22;3309;48.708;9.290;2023-12-20T10:47:53;11.00;1.00
6552;DHT22;3309;48.708;9.290;2023-12-20T10:50:19;11.40;1.00
6552;DHT22;3309;48.708;9.290;2023-12-20T10:52:47;12.40;1.00
6552;DHT22;3309;48.708;9.290;2023-12-20T10:55:12;12.30;1.00
6552;DHT22;3309;48.708;9.290;2023-12-20T10:57:38;11.90;1.00
6552;DHT22;3309;48.708;9.290;2023-12-20T11:00:06;11.40;1.00
6552;DHT22;3309;48.708;9.290;2023-12-20T11:02:39;11.50;1.00
6552;DHT22;3309;48.708;9.290;2023-12-20T11:05:31;11.10;1.00
6552;DHT22;3309;48.708;9.290;2023-12-20T11:08:08;11.00;1.00
6552;DHT22;3309;48.708;9.290;2023-12-20T11:13:22;10.80;1.00
6552;DHT22;3309;48.708;9.290;2023-12-20T11:15:49;9.80;1.00
6552;DHT22;3309;48.708;9.290;2023-12-20T11:18:16;9.10;1.00
6552;DHT22;3309;48.708;9.290;2023-12-20T11:20:42;8.60;99.90
6552;DHT22;3309;48.708;9.290;2023-12-20T11:23:09;8.20;99.90
6552;DHT22;3309;48.708;9.290;2023-12-20T11:25:55;7.70;99.90
6552;DHT22;3309;48.708;9.290;2023-12-20T11:28:23;7.40;1.00
6552;DHT22;3309;48.708;9.290;2023-12-20T11:30:51;7.20;1.00
6552;DHT22;3309;48.708;9.290;2023-12-20T11:33:24;7.00;1.00
6552;DHT22;3309;48.708;9.290;2023-12-20T11:35:50;6.90;99.90
6552;DHT22;3309;48.708;9.290;2023-12-20T11:38:20;7.70;99.90
6552;DHT22;3309;48.708;9.290;2023-12-20T11:40:48;7.10;99.90
6552;DHT22;3309;48.708;9.290;2023-12-20T11:43:30;7.20;99.90
6552;DHT22;3309;48.708;9.290;2023-12-20T11:46:02;7.00;1.00
6552;DHT22;3309;48.708;9.290;2023-12-20T11:48:30;6.80;1.00
6552;DHT22;3309;48.708;9.290;2023-12-20T11:50:56;6.70;92.70
6552;DHT22;3309;48.708;9.290;2023-12-20T11:53:22;6.70;1.00
6552;DHT22;3309;48.708;9.290;2023-12-20T11:55:49;7.00;1.00
6552;DHT22;3309;48.708;9.290;2023-12-20T11:58:14;7.00;1.00
6552;DHT22;3309;48.708;9.290;2023-12-20T12:00:42;7.10;88.50
6552;DHT22;3309;48.708;9.290;2023-12-20T12:03:14;7.00;21.60
6552;DHT22;3309;48.708;9.290;2023-12-20T12:05:40;7.00;99.90
6552;DHT22;3309;48.708;9.290;2023-12-20T12:08:05;6.90;1.00
6552;DHT22;3309;48.708;9.290;2023-12-20T12:10:31;6.70;1.00
6552;DHT22;3309;48.708;9.290;2023-12-20T12:12:57;6.50;1.00
6552;DHT22;3309;48.708;9.290;2023-12-20T12:15:22;6.40;1.00
6552;DHT22;3309;48.708;9.290;2023-12-20T12:17:55;6.30;1.00
6552;DHT22;3309;48.708;9.290;2023-12-20T12:20:21;6.20;1.00
6552;DHT22;3309;48.708;9.290;2023-12-20T12:22:58;6.20;1.00
6552;DHT22;3309;48.708;9.290;2023-12-20T12:25:23;6.10;21.20
6552;DHT22;3309;48.708;9.290;2023-12-20T12:27:51;6.10;1.00
6552;DHT22;3309;48.708;9.290;2023-12-20T12:30:17;6.10;1.00
6552;DHT22;3309;48.708;9.290;2023-12-20T12:32:44;6.10;1.00
6552;DHT22;3309;48.708;9.290;2023-12-20T12:35:10;6.10;1.00
6552;DHT22;3309;48.708;9.290;2023-12-20T12:37:37;6.00;1.00
6552;DHT22;3309;48.708;9.290;2023-12-20T12:40:05;6.00;1.00
6552;DHT22;3309;48.708;9.290;2023-12-20T12:42:31;6.10;99.90
6552;DHT22;3309;48.708;9.290;2023-12-20T12:44:57;6.10;99.90
6552;DHT22;3309;48.708;9.290;2023-12-20T12:47:22;6.10;1.00
6552;DHT22;3309;48.708;9.290;2023-12-20T12:49:51;6.00;62.40
6552;DHT22;3309;48.708;9.290;2023-12-20T12:52:16;6.10;1.00
6552;DHT22;3309;48.708;9.290;2023-12-20T12:54:42;6.00;99.90
6552;DHT22;3309;48.708;9.290;2023-12-20T12:57:08;6.10;99.90
6552;DHT22;3309;48.708;9.290;2023-12-20T12:59:34;6.20;99.90
6552;DHT22;3309;48.708;9.290;2023-12-20T13:02:00;6.20;1.00
6552;DHT22;3309;48.708;9.290;2023-12-20T13:04:29;6.30;99.90
6552;DHT22;3309;48.708;9.290;2023-12-20T13:06:54;6.30;1.00
6552;DHT22;3309;48.708;9.290;2023-12-20T13:09:20;6.20;1.00
6552;DHT22;3309;48.708;9.290;2023-12-20T13:11:46;6.10;1.00
6552;DHT22;3309;48.708;9.290;2023-12-20T13:14:11;6.10;1.00
6552;DHT22;3309;48.708;9.290;2023-12-20T13:16:42;6.60;1.00
6552;DHT22;3309;48.708;9.290;2023-12-20T13:19:08;6.10;99.90
6552;DHT22;3309;48.708;9.290;2023-12-20T13:21:33;6.20;1.00
6552;DHT22;3309;48.708;9.290;2023-12-20T13:23:59;6.20;1.00
6552;DHT22;3309;48.708;9.290;2023-12-20T13:26:25;6.30;99.90
6552;DHT22;3309;48.708;9.290;2023-12-20T13:28:50;6.20;99.90
6552;DHT22;3309;48.708;9.290;2023-12-20T13:31:16;6.40;1.00
6552;DHT22;3309;48.708;9.290;2023-12-20T13:33:42;6.20;1.00
6552;DHT22;3309;48.708;9.290;2023-12-20T13:36:07;6.20;99.90
6552;DHT22;3309;48.708;9.290;2023-12-20T13:38:34;6.20;99.90
6552;DHT22;3309;48.708;9.290;2023-12-20T13:40:59;6.20;99.90
6552;DHT22;3309;48.708;9.290;2023-12-20T13:43:25;6.40;99.90
6552;DHT22;3309;48.708;9.290;2023-12-20T13:45:50;9.60;1.00
6552;DHT22;3309;48.708;9.290;2023-12-20T13:48:17;10.60;1.00
6552;DHT22;3309;48.708;9.290;2023-12-20T13:50:43;11.20;1.00
6552;DHT22;3309;48.708;9.290;2023-12-20T13:53:09;9.20;1.00
6552;DHT22;3309;48.708;9.290;2023-12-20T13:55:35;8.10;1.00
6552;DHT22;3309;48.708;9.290;2023-12-20T13:58:00;7.50;99.90
6552;DHT22;3309;48.708;9.290;2023-12-20T14:00:27;7.10;99.90
6552;DHT22;3309;48.708;9.290;2023-12-20T14:02:52;6.80;1.00
6552;DHT22;3309;48.708;9.290;2023-12-20T14:05:18;6.70;1.00
6552;DHT22;3309;48.708;9.290;2023-12-20T14:07:44;6.60;1.00
6552;DHT22;3309;48.708;9.290;2023-12-20T14:10:15;6.60;77.60
6552;DHT22;3309;48.708;9.290;2023-12-20T14:12:40;6.40;99.90
6552;DHT22;3309;48.708;9.290;2023-12-20T14:15:06;6.40;99.90
6552;DHT22;3309;48.708;9.290;2023-12-20T14:17:40;6.30;19.40
6552;DHT22;3309;48.708;9.290;2023-12-20T14:20:07;6.30;99.90
6552;DHT22;3309;48.708;9.290;2023-12-20T14:22:33;6.20;99.90
6552;DHT22;3309;48.708;9.290;2023-12-20T14:24:59;6.20;99.90
6552;DHT22;3309;48.708;9.290;2023-12-20T14:27:25;6.20;1.00
6552;DHT22;3309;48.708;9.290;2023-12-20T14:29:53;6.00;1.00
6552;DHT22;3309;48.708;9.290;2023-12-20T14:32:19;6.00;1.00
6552;DHT22;3309;48.708;9.290;2023-12-20T14:34:45;5.90;1.00
6552;DHT22;3309;48.708;9.290;2023-12-20T14:37:11;5.90;1.00
6552;DHT22;3309;48.708;9.290;2023-12-20T14:39:38;6.00;99.90
6552;DHT22;3309;48.708;9.290;2023-12-20T14:42:07;5.90;1.00
6552;DHT22;3309;48.708;9.290;2023-12-20T14:44:36;6.00;99.90
6552;DHT22;3309;48.708;9.290;2023-12-20T14:47:02;5.90;66.80
6552;DHT22;3309;48.708;9.290;2023-12-20T14:49:27;5.90;99.90
6552;DHT22;3309;48.708;9.290;2023-12-20T14:51:53;5.80;1.00
6552;DHT22;3309;48.708;9.290;2023-12-20T14:54:19;5.80;1.00
6552;DHT22;3309;48.708;9.290;2023-12-20T14:56:46;5.70;99.90
6552;DHT22;3309;48.708;9.290;2023-12-20T14:59:12;5.70;11.00
6552;DHT22;3309;48.708;9.290;2023-12-20T15:01:38;5.60;85.10
6552;DHT22;3309;48.708;9.290;2023-12-20T15:04:06;5.50;1.00
6552;DHT22;3309;48.708;9.290;2023-12-20T15:06:31;5.50;1.00
6552;DHT22;3309;48.708;9.290;2023-12-20T15:08:58;5.50;99.90
6552;DHT22;3309;48.708;9.290;2023-12-20T15:11:24;5.40;99.90
6552;DHT22;3309;48.708;9.290;2023-12-20T15:13:49;5.30;1.00
6552;DHT22;3309;48.708;9.290;2023-12-20T15:16:20;5.30;1.00
6552;DHT22;3309;48.708;9.290;2023-12-20T15:18:46;5.30;1.00
6552;DHT22;3309;48.708;9.290;2023-12-20T15:21:11;5.20;1.00
6552;DHT22;3309;48.708;9.290;2023-12-20T15:23:37;5.10;1.00
6552;DHT22;3309;48.708;9.290;2023-12-20T15:26:03;5.10;1.00
6552;DHT22;3309;48.708;9.290;2023-12-20T15:28:30;5.10;1.00
6552;DHT22;3309;48.708;9.290;2023-12-20T15:30:55;5.00;1.00
6552;DHT22;3309;48.708;9.290;2023-12-20T15:33:22;5.00;1.00
6552;DHT22;3309;48.708;9.290;2023-12-20T15:35:47;5.00;1.00
6552;DHT22;3309;48.708;9.290;2023-12-20T15:38:13;5.00;1.00
6552;DHT22;3309;48.708;9.290;2023-12-20T15:40:39;5.00;1.00
6552;DHT22;3309;48.708;9.290;2023-12-20T15:43:04;5.00;1.00
6552;DHT22;3309;48.708;9.290;2023-12-20T15:45:30;4.90;1.00
6552;DHT22;3309;48.708;9.290;2023-12-20T15:47:56;4.90;1.00
6552;DHT22;3309;48.708;9.290;2023-12-20T15:50:22;4.90;1.00
6552;DHT22;3309;48.708;9.290;2023-12-20T15:52:48;4.90;1.00
6552;DHT22;3309;48.708;9.290;2023-12-20T15:55:14;4.90;1.00
6552;DHT22;3309;48.708;9.290;2023-12-20T15:57:40;4.90;1.00
6552;DHT22;3309;48.708;9.290;2023-12-20T16:00:07;4.80;1.00
6552;DHT22;3309;48.708;9.290;2023-12-20T16:02:33;4.80;1.00
6552;DHT22;3309;48.708;9.290;2023-12-20T16:04:59;4.80;1.00
6552;DHT22;3309;48.708;9.290;2023-12-20T16:07:25;4.90;1.00
6552;DHT22;3309;48.708;9.290;2023-12-20T16:09:50;4.80;1.00
6552;DHT22;3309;48.708;9.290;2023-12-20T16:12:16;4.80;1.00
6552;DHT22;3309;48.708;9.290;2023-12-20T16:14:41;4.80;1.00
6552;DHT22;3309;48.708;9.290;2023-12-20T16:17:07;4.70;1.00
6552;DHT22;3309;48.708;9.290;2023-12-20T16:19:32;4.80;1.00